createdAt,value
2022-08-07T00:02:35.297Z,21.71
2022-08-07T00:04:04.308Z,21.36
2022-08-07T00:06:33.882Z,21.62
2022-08-07T00:09:17.018Z,21.51
2022-08-07T00:11:56.152Z,21.59
2022-08-07T00:14:30.034Z,21.50
2022-08-07T00:16:59.375Z,21.55
2022-08-07T00:20:00.341Z,21.67
2022-08-07T00:22:24.536Z,21.67
2022-08-07T00:25:07.317Z,21.57
2022-08-07T00:27:52.395Z,21.64
2022-08-07T00:30:27.059Z,21.76
2022-08-07T00:32:59.570Z,21.79
2022-08-07T00:35:30.539Z,21.71
2022-08-07T00:37:58.699Z,21.65
2022-08-07T00:40:39.916Z,21.70
2022-08-07T00:43:10.561Z,21.82
2022-08-07T00:45:56.637Z,21.81
2022-08-07T00:48:25.046Z,21.61
2022-08-07T00:50:58.687Z,21.55
2022-08-07T00:53:27.105Z,21.59
2022-08-07T00:56:07.404Z,21.59
2022-08-07T00:58:47.343Z,21.66
2022-08-07T01:01:17.373Z,21.49
2022-08-07T01:03:57.236Z,21.42
2022-08-07T01:06:28.071Z,21.46
2022-08-07T01:08:58.421Z,21.61
2022-08-07T01:12:23.538Z,21.68
2022-08-07T01:14:28.770Z,21.70
2022-08-07T01:16:57.169Z,21.64
2022-08-07T01:19:24.986Z,21.69
2022-08-07T01:21:53.519Z,21.77
2022-08-07T01:24:22.663Z,21.67
2022-08-07T01:26:52.242Z,21.64
2022-08-07T01:29:21.952Z,21.69
2022-08-07T01:31:50.165Z,21.53
2022-08-07T01:34:20.298Z,21.50
2022-08-07T01:36:58.255Z,21.55
2022-08-07T01:39:40.374Z,21.59
2022-08-07T01:42:38.373Z,21.67
2022-08-07T01:45:03.258Z,21.65
2022-08-07T01:48:20.999Z,21.49
2022-08-07T01:50:22.676Z,21.59
2022-08-07T01:52:58.382Z,21.76
2022-08-07T01:55:30.709Z,21.85
2022-08-07T01:58:27.181Z,21.99
2022-08-07T02:01:10.027Z,21.96
2022-08-07T02:03:51.458Z,21.99
2022-08-07T02:06:31.905Z,21.89
2022-08-07T02:09:03.732Z,22.08
2022-08-07T02:12:02.786Z,22.00
2022-08-07T02:14:40.387Z,22.06
2022-08-07T02:17:09.573Z,21.92
2022-08-07T02:20:04.819Z,21.86
2022-08-07T02:22:27.869Z,21.91
2022-08-07T02:24:56.359Z,21.88
2022-08-07T02:27:25.111Z,21.90
2022-08-07T02:29:54.760Z,21.88
2022-08-07T02:32:23.472Z,21.78
2022-08-07T02:34:54.916Z,21.85
2022-08-07T02:37:25.563Z,21.75
2022-08-07T02:40:12.059Z,21.84
2022-08-07T02:42:41.825Z,21.91
2022-08-07T02:45:57.720Z,21.97
2022-08-07T02:47:59.324Z,21.91
2022-08-07T02:50:31.751Z,21.80
2022-08-07T02:53:06.407Z,21.80
2022-08-07T02:56:03.354Z,21.71
2022-08-07T02:58:23.511Z,21.67
2022-08-07T03:00:56.578Z,21.63
2022-08-07T03:03:24.366Z,21.67
2022-08-07T03:05:57.358Z,21.67
2022-08-07T03:08:26.890Z,21.75
2022-08-07T03:10:56.994Z,21.68
2022-08-07T03:13:24.238Z,21.53
2022-08-07T03:15:56.406Z,21.51
2022-08-07T03:18:36.173Z,21.58
2022-08-07T03:21:08.734Z,21.55
2022-08-07T03:24:18.002Z,21.76
2022-08-07T03:26:29.063Z,21.66
2022-08-07T03:28:56.238Z,21.75
2022-08-07T03:31:43.416Z,21.77
2022-08-07T03:34:18.625Z,21.72
2022-08-07T03:36:51.485Z,21.74
2022-08-07T03:39:46.485Z,21.74
2022-08-07T03:42:07.690Z,21.81
2022-08-07T03:44:37.025Z,21.85
2022-08-07T03:47:11.042Z,21.70
2022-08-07T03:49:38.953Z,21.79
2022-08-07T03:52:22.810Z,21.82
2022-08-07T03:54:57.427Z,21.68
2022-08-07T03:58:57.172Z,21.55
2022-08-07T04:00:14.966Z,21.55
2022-08-07T04:02:47.487Z,21.49
2022-08-07T04:05:20.294Z,21.61
2022-08-07T04:07:56.068Z,21.61
2022-08-07T04:10:23.132Z,21.54
2022-08-07T04:12:51.280Z,21.45
2022-08-07T04:15:19.080Z,21.57
2022-08-07T04:18:31.433Z,21.60
2022-08-07T04:20:35.158Z,21.56
2022-08-07T04:23:06.595Z,21.50
2022-08-07T04:25:39.349Z,21.55
2022-08-07T04:28:10.321Z,21.50
2022-08-07T04:30:55.562Z,21.54
2022-08-07T04:33:24.794Z,21.62
2022-08-07T04:35:53.976Z,21.41
2022-08-07T04:38:22.167Z,21.46
2022-08-07T04:40:51.954Z,21.43
2022-08-07T04:44:11.300Z,21.47
2022-08-07T04:46:34.223Z,21.52
2022-08-07T04:49:37.828Z,21.64
2022-08-07T04:52:31.661Z,21.52
2022-08-07T04:58:23.667Z,21.53
2022-08-07T04:58:47.679Z,21.52
2022-08-07T05:01:30.446Z,21.75
2022-08-07T05:04:19.167Z,21.86
2022-08-07T05:06:53.182Z,21.83
2022-08-07T05:09:45.518Z,21.97
2022-08-07T05:12:26.925Z,21.93
2022-08-07T05:15:16.080Z,22.15
2022-08-07T05:17:56.033Z,22.19
2022-08-07T05:20:27.309Z,22.31
2022-08-07T05:22:58.024Z,22.34
2022-08-07T05:25:25.650Z,22.35
2022-08-07T05:28:20.052Z,22.59
2022-08-07T05:30:52.107Z,22.59
2022-08-07T05:33:21.321Z,22.42
2022-08-07T05:35:50.700Z,22.47
2022-08-07T05:38:59.848Z,22.56
2022-08-07T05:41:14.245Z,22.49
2022-08-07T05:44:08.307Z,23.23
2022-08-07T05:46:37.990Z,23.37
2022-08-07T05:49:11.941Z,23.31
2022-08-07T05:51:42.352Z,23.66
2022-08-07T05:54:30.242Z,23.73
2022-08-07T05:56:58.844Z,23.88
2022-08-07T05:59:27.508Z,23.52
2022-08-07T06:01:57.410Z,23.63
2022-08-07T06:04:30.185Z,23.22
2022-08-07T06:07:03.710Z,23.40
2022-08-07T06:10:03.762Z,23.04
2022-08-07T06:12:21.145Z,23.21
2022-08-07T06:15:05.419Z,23.98
2022-08-07T06:17:37.816Z,24.19
2022-08-07T06:20:12.442Z,23.98
2022-08-07T06:22:41.130Z,24.10
2022-08-07T06:25:17.670Z,24.14
2022-08-07T06:28:01.641Z,24.51
2022-08-07T06:30:35.418Z,23.60
2022-08-07T06:33:05.562Z,23.74
2022-08-07T06:35:47.899Z,23.61
2022-08-07T06:38:30.409Z,24.02
2022-08-07T06:40:59.446Z,23.95
2022-08-07T06:43:26.835Z,23.64
2022-08-07T06:46:06.171Z,23.65
2022-08-07T06:48:38.863Z,23.54
2022-08-07T06:51:13.502Z,23.32
2022-08-07T06:55:29.352Z,23.80
2022-08-07T06:56:48.896Z,23.93
2022-08-07T07:00:13.059Z,23.48
2022-08-07T07:02:48.894Z,23.75
2022-08-07T07:05:09.552Z,23.25
2022-08-07T07:08:00.148Z,23.22
2022-08-07T07:10:36.742Z,23.69
2022-08-07T07:13:56.526Z,23.41
2022-08-07T07:16:09.241Z,23.42
2022-08-07T07:18:48.315Z,24.12
2022-08-07T07:21:19.945Z,24.66
2022-08-07T07:24:06.342Z,24.87
2022-08-07T07:26:37.231Z,25.30
2022-08-07T07:29:39.277Z,24.73
2022-08-07T07:32:14.570Z,24.92
2022-08-07T07:34:53.089Z,24.82
2022-08-07T07:37:44.258Z,24.63
2022-08-07T07:40:14.719Z,25.09
2022-08-07T07:42:51.391Z,24.79
2022-08-07T07:46:38.504Z,25.18
2022-08-07T07:48:24.168Z,26.03
2022-08-07T07:51:08.143Z,25.78
2022-08-07T07:53:52.139Z,26.20
2022-08-07T07:56:29.959Z,26.87
2022-08-07T07:59:03.342Z,26.16
2022-08-07T08:02:02.128Z,26.19
2022-08-07T08:04:25.762Z,26.46
2022-08-07T08:06:55.244Z,26.29
2022-08-07T08:09:29.429Z,26.99
2022-08-07T08:12:01.939Z,26.80
2022-08-07T08:14:36.065Z,27.06
2022-08-07T08:17:55.632Z,27.10
2022-08-07T08:20:17.597Z,27.01
2022-08-07T08:23:01.774Z,26.90
2022-08-07T08:25:50.363Z,27.44
2022-08-07T08:28:38.281Z,26.80
2022-08-07T08:31:14.851Z,27.01
2022-08-07T08:33:49.656Z,27.83
2022-08-07T08:36:29.564Z,27.25
2022-08-07T08:39:01.610Z,27.79
2022-08-07T08:41:57.819Z,27.66
2022-08-07T08:44:38.321Z,27.31
2022-08-07T08:47:25.203Z,26.01
2022-08-07T08:50:17.601Z,26.52
2022-08-07T08:53:20.404Z,27.60
2022-08-07T08:55:54.609Z,27.67
2022-08-07T08:58:57.266Z,27.01
2022-08-07T09:01:49.178Z,27.36
2022-08-07T09:04:36.636Z,27.28
2022-08-07T09:07:28.920Z,26.51
2022-08-07T09:10:11.537Z,26.24
2022-08-07T09:12:59.631Z,26.15
2022-08-07T09:16:24.319Z,26.83
2022-08-07T09:18:53.114Z,26.32
2022-08-07T09:22:09.875Z,27.39
2022-08-07T09:25:07.158Z,27.87
2022-08-07T09:27:59.753Z,27.64
2022-08-07T09:30:46.425Z,27.99
2022-08-07T09:33:52.627Z,28.01
2022-08-07T09:36:31.179Z,27.12
2022-08-07T09:39:53.642Z,28.36
2022-08-07T09:42:32.926Z,28.72
2022-08-07T09:47:49.623Z,28.85
2022-08-07T09:48:50.265Z,27.78
2022-08-07T09:52:16.435Z,28.51
2022-08-07T09:54:48.241Z,27.94
2022-08-07T09:57:30.025Z,28.85
2022-08-07T10:00:18.847Z,29.29
2022-08-07T10:03:08.150Z,29.26
2022-08-07T10:06:05.496Z,28.97
2022-08-07T10:08:57.649Z,29.59
2022-08-07T10:12:01.365Z,29.17
2022-08-07T10:15:00.444Z,28.11
2022-08-07T10:18:03.006Z,28.51
2022-08-07T10:21:00.749Z,29.22
2022-08-07T10:24:06.585Z,29.66
2022-08-07T10:27:00.478Z,29.53
2022-08-07T10:30:06.558Z,28.20
2022-08-07T10:32:59.884Z,29.03
2022-08-07T10:35:56.534Z,29.44
2022-08-07T10:38:47.929Z,28.89
2022-08-07T10:41:47.127Z,29.76
2022-08-07T10:44:37.675Z,29.99
2022-08-07T10:47:19.440Z,29.51
2022-08-07T10:50:33.286Z,29.02
2022-08-07T10:53:10.480Z,29.33
2022-08-07T10:56:03.281Z,29.98
2022-08-07T10:58:59.601Z,29.81
2022-08-07T11:02:04.701Z,30.45
2022-08-07T11:04:57.625Z,30.57
2022-08-07T11:07:58.582Z,30.88
2022-08-07T11:10:57.957Z,30.44
2022-08-07T11:14:44.578Z,29.84
2022-08-07T11:16:30.502Z,30.01
2022-08-07T11:19:11.974Z,29.91
2022-08-07T11:22:00.215Z,30.27
2022-08-07T11:24:51.875Z,30.45
2022-08-07T11:28:01.300Z,29.95
2022-08-07T11:30:41.862Z,30.30
2022-08-07T11:33:58.463Z,30.29
2022-08-07T11:36:49.909Z,30.21
2022-08-07T11:39:59.361Z,30.03
2022-08-07T11:42:41.808Z,30.41
2022-08-07T11:45:35.362Z,30.87
2022-08-07T11:48:29.037Z,31.14
2022-08-07T11:51:44.726Z,31.05
2022-08-07T11:54:33.708Z,30.93
2022-08-07T11:57:20.648Z,30.64
2022-08-07T12:00:28.463Z,31.11
2022-08-07T12:03:45.298Z,30.77
2022-08-07T12:06:37.134Z,31.42
2022-08-07T12:09:23.285Z,30.08
2022-08-07T12:12:12.557Z,30.89
2022-08-07T12:14:55.528Z,31.33
2022-08-07T12:18:03.077Z,32.24
2022-08-07T12:20:52.810Z,32.37
2022-08-07T12:24:07.102Z,32.14
2022-08-07T12:26:49.587Z,31.84
2022-08-07T12:29:40.179Z,30.59
2022-08-07T12:32:18.225Z,30.46
2022-08-07T12:34:49.353Z,31.57
2022-08-07T12:37:28.317Z,32.09
2022-08-07T12:40:30.023Z,31.79
2022-08-07T12:43:03.359Z,31.59
2022-08-07T12:46:16.047Z,31.51
2022-08-07T12:48:55.578Z,32.16
2022-08-07T12:51:33.428Z,32.27
2022-08-07T12:54:41.160Z,32.50
2022-08-07T12:57:09.982Z,32.22
2022-08-07T12:59:54.483Z,31.95
2022-08-07T13:02:49.774Z,31.55
2022-08-07T13:06:03.355Z,31.19
2022-08-07T13:08:55.518Z,30.99
2022-08-07T13:12:03.082Z,30.20
2022-08-07T13:14:55.415Z,30.67
2022-08-07T13:17:40.600Z,31.54
2022-08-07T13:20:51.017Z,31.27
2022-08-07T13:24:01.138Z,32.04
2022-08-07T13:26:46.597Z,31.53
2022-08-07T13:29:21.145Z,31.74
2022-08-07T13:31:57.406Z,31.99
2022-08-07T13:34:37.907Z,32.42
2022-08-07T13:37:20.136Z,32.38
2022-08-07T13:40:35.265Z,32.56
2022-08-07T13:43:00.164Z,32.13
2022-08-07T13:46:10.906Z,32.35
2022-08-07T13:48:27.877Z,32.41
2022-08-07T13:51:20.496Z,32.11
2022-08-07T13:54:01.807Z,31.65
2022-08-07T13:56:35.698Z,31.42
2022-08-07T13:59:12.727Z,31.59
2022-08-07T14:02:19.570Z,31.79
2022-08-07T14:05:00.729Z,31.74
2022-08-07T14:07:30.637Z,31.57
2022-08-07T14:10:16.448Z,31.07
2022-08-07T14:12:54.815Z,30.58
2022-08-07T14:15:39.421Z,30.68
2022-08-07T14:18:28.768Z,31.22
2022-08-07T14:22:03.171Z,31.29
2022-08-07T14:24:25.536Z,31.50
2022-08-07T14:26:56.102Z,31.48
2022-08-07T14:30:05.824Z,31.80
2022-08-07T14:32:26.884Z,31.36
2022-08-07T14:34:55.360Z,31.37
2022-08-07T14:37:32.934Z,30.56
2022-08-07T14:40:16.616Z,30.68
2022-08-07T14:43:55.645Z,30.33
2022-08-07T14:45:49.659Z,29.65
2022-08-07T14:48:20.487Z,30.26
2022-08-07T14:50:50.937Z,30.53
2022-08-07T14:54:06.613Z,30.55
2022-08-07T14:56:13.049Z,30.68
2022-08-07T14:58:45.109Z,30.59
2022-08-07T15:01:21.624Z,30.49
2022-08-07T15:03:52.349Z,30.64
2022-08-07T15:06:25.883Z,30.30
2022-08-07T15:08:54.861Z,30.53
2022-08-07T15:14:57.927Z,30.33
2022-08-07T15:17:32.703Z,30.37
2022-08-07T15:23:20.285Z,29.98
2022-08-07T15:25:52.288Z,30.02
2022-08-07T15:28:35.117Z,29.92
2022-08-07T15:31:10.554Z,29.96
2022-08-07T15:37:04.145Z,30.02
2022-08-07T15:39:16.083Z,29.41
2022-08-07T15:42:48.248Z,29.67
2022-08-07T15:45:24.958Z,29.69
2022-08-07T15:48:30.381Z,29.71
2022-08-07T15:51:08.428Z,29.62
2022-08-07T15:53:52.918Z,29.46
2022-08-07T15:56:24.958Z,29.49
2022-08-07T15:58:59.219Z,29.39
2022-08-07T16:01:38.636Z,29.55
2022-08-07T16:04:14.730Z,29.34
2022-08-07T16:06:54.248Z,29.47
2022-08-07T16:09:42.289Z,29.42
2022-08-07T16:12:12.488Z,29.49
2022-08-07T16:15:04.024Z,29.50
2022-08-07T16:18:01.946Z,29.47
2022-08-07T16:21:42.988Z,29.35
2022-08-07T16:23:59.357Z,29.26
2022-08-07T16:26:31.143Z,29.18
2022-08-07T16:30:06.926Z,29.24
2022-08-07T16:32:00.809Z,28.97
2022-08-07T16:34:53.063Z,29.25
2022-08-07T16:38:05.786Z,29.14
2022-08-07T16:40:30.748Z,29.07
2022-08-07T16:43:11.638Z,29.12
2022-08-07T16:50:29.368Z,28.93
2022-08-07T16:52:35.401Z,28.83
2022-08-07T16:55:47.031Z,28.79
2022-08-07T16:58:23.527Z,28.68
2022-08-07T17:01:01.045Z,28.61
2022-08-07T17:04:00.082Z,28.42
2022-08-07T17:07:03.010Z,28.41
2022-08-07T17:10:06.724Z,28.39
2022-08-07T17:12:53.030Z,28.46
2022-08-07T17:15:44.289Z,28.53
2022-08-07T17:18:51.785Z,28.51
2022-08-07T17:21:27.447Z,28.31
2022-08-07T17:24:29.478Z,28.29
2022-08-07T17:27:36.630Z,28.30
2022-08-07T17:30:20.596Z,28.27
2022-08-07T17:34:08.496Z,28.28
2022-08-07T17:36:58.387Z,28.27
2022-08-07T17:39:57.809Z,28.14
2022-08-07T17:42:59.648Z,28.08
2022-08-07T17:45:38.211Z,28.07
2022-08-07T17:48:31.061Z,28.04
2022-08-07T17:51:01.693Z,28.01
2022-08-07T17:54:01.516Z,27.99
2022-08-07T17:56:35.215Z,28.04
2022-08-07T17:59:22.750Z,28.01
2022-08-07T18:02:09.317Z,28.02
2022-08-07T18:04:45.489Z,27.93
2022-08-07T18:07:20.081Z,27.93
2022-08-07T18:10:05.945Z,27.89
2022-08-07T18:12:53.311Z,27.90
2022-08-07T18:15:32.540Z,27.87
2022-08-07T18:19:02.627Z,27.81
2022-08-07T18:21:37.133Z,27.78
2022-08-07T18:24:34.689Z,27.72
2022-08-07T18:27:21.771Z,27.67
2022-08-07T18:30:05.652Z,27.59
2022-08-07T18:33:10.381Z,27.54
2022-08-07T18:36:06.021Z,27.49
2022-08-07T18:38:56.988Z,27.47
2022-08-07T18:41:46.629Z,27.43
2022-08-07T18:45:40.093Z,27.38
2022-08-07T18:48:00.795Z,27.34
2022-08-07T18:50:47.158Z,27.31
2022-08-07T18:53:39.259Z,27.29
2022-08-07T18:56:14.699Z,27.25
2022-08-07T18:59:06.119Z,27.20
2022-08-07T19:02:19.029Z,27.13
2022-08-07T19:04:57.809Z,27.08
2022-08-07T19:07:58.865Z,27.03
2022-08-07T19:10:51.314Z,26.92
2022-08-07T19:13:37.898Z,26.87
2022-08-07T19:17:05.513Z,26.71
2022-08-07T19:19:53.422Z,26.53
2022-08-07T19:22:30.765Z,26.23
2022-08-07T19:24:58.646Z,26.18
2022-08-07T19:30:53.876Z,26.22
2022-08-07T19:30:58.703Z,26.21
2022-08-07T19:33:15.631Z,26.17
2022-08-07T19:35:50.377Z,26.12
2022-08-07T19:38:19.153Z,26.06
2022-08-07T19:40:51.316Z,26.00
2022-08-07T19:43:44.506Z,25.85
2022-08-07T19:46:15.741Z,25.78
2022-08-07T19:48:53.692Z,25.69
2022-08-07T19:51:52.863Z,25.60
2022-08-07T19:54:43.882Z,25.54
2022-08-07T19:58:02.674Z,25.47
2022-08-07T19:59:58.624Z,25.46
2022-08-07T20:02:40.282Z,25.35
2022-08-07T20:05:27.926Z,25.33
2022-08-07T20:08:01.094Z,25.21
2022-08-07T20:10:55.486Z,25.15
2022-08-07T20:13:31.975Z,25.13
2022-08-07T20:16:01.286Z,25.07
2022-08-07T20:18:32.894Z,25.04
2022-08-07T20:21:21.045Z,24.98
2022-08-07T20:23:54.116Z,24.92
2022-08-07T20:26:32.468Z,24.88
2022-08-07T20:29:46.643Z,24.82
2022-08-07T20:31:58.044Z,24.78
2022-08-07T20:34:49.459Z,24.71
2022-08-07T20:37:15.213Z,24.56
2022-08-07T20:40:04.200Z,24.48
2022-08-07T20:42:30.611Z,24.44
2022-08-07T20:45:01.104Z,24.39
2022-08-07T20:47:55.635Z,24.28
2022-08-07T20:50:20.812Z,24.16
2022-08-07T20:52:51.266Z,23.84
2022-08-07T20:55:23.563Z,23.89
2022-08-07T20:58:02.283Z,23.80
2022-08-07T21:00:42.980Z,23.83
2022-08-07T21:03:14.495Z,23.80
2022-08-07T21:05:55.923Z,23.75
2022-08-07T21:08:38.079Z,23.68
2022-08-07T21:11:12.220Z,23.54
2022-08-07T21:14:16.679Z,23.48
2022-08-07T21:18:00.460Z,23.40
2022-08-07T21:20:05.129Z,23.39
2022-08-07T21:22:38.548Z,23.31
2022-08-07T21:25:16.193Z,23.25
2022-08-07T21:28:07.856Z,23.20
2022-08-07T21:30:50.087Z,23.15
2022-08-07T21:33:21.646Z,23.12
2022-08-07T21:36:32.178Z,22.86
2022-08-07T21:39:46.469Z,22.85
2022-08-07T21:42:48.420Z,22.79
2022-08-07T21:46:07.512Z,22.73
2022-08-07T21:48:32.101Z,22.71
2022-08-07T21:51:25.054Z,22.61
2022-08-07T21:53:59.348Z,22.54
2022-08-07T21:57:06.302Z,22.47
2022-08-07T22:00:03.518Z,22.39
2022-08-07T22:03:05.735Z,22.07
2022-08-07T22:05:56.755Z,21.77
2022-08-07T22:08:27.736Z,21.88
2022-08-07T22:10:59.686Z,22.03
2022-08-07T22:13:52.759Z,22.07
2022-08-07T22:16:43.305Z,22.10
2022-08-07T22:19:23.717Z,22.10
2022-08-07T22:22:20.796Z,22.06
2022-08-07T22:25:02.975Z,22.02
2022-08-07T22:28:20.215Z,22.00
2022-08-07T22:30:52.746Z,22.00
2022-08-07T22:33:52.879Z,21.94
2022-08-07T22:36:38.443Z,21.86
2022-08-07T22:39:13.350Z,21.79
2022-08-07T22:42:03.697Z,21.74
2022-08-07T22:44:57.979Z,21.73
2022-08-07T22:48:00.956Z,21.66
2022-08-07T22:50:33.460Z,21.61
2022-08-07T22:53:19.148Z,21.43
2022-08-07T22:56:08.702Z,21.43
2022-08-07T22:59:10.345Z,21.42
2022-08-07T23:02:19.944Z,21.40
2022-08-07T23:06:08.625Z,21.36
2022-08-07T23:08:07.197Z,21.34
2022-08-07T23:11:13.131Z,21.36
2022-08-07T23:14:14.999Z,21.31
2022-08-07T23:17:15.612Z,21.27
2022-08-07T23:20:51.591Z,21.21
2022-08-07T23:24:05.317Z,21.25
2022-08-07T23:26:23.539Z,21.21
2022-08-07T23:29:04.339Z,21.12
2022-08-07T23:34:19.767Z,21.15
2022-08-07T23:35:27.423Z,21.20
2022-08-07T23:38:19.306Z,21.21
2022-08-07T23:41:33.712Z,21.20
2022-08-07T23:44:24.752Z,21.25
2022-08-07T23:49:52.861Z,21.19
2022-08-07T23:52:57.920Z,21.19
2022-08-07T23:55:53.110Z,21.11
2022-08-07T23:58:38.185Z,21.14
